createdAt,value
2017-12-14T00:00:11.598Z,7.05
2017-12-14T00:02:38.364Z,7.78
2017-12-14T00:05:12.452Z,6.53
2017-12-14T00:07:39.399Z,7.93
2017-12-14T00:10:06.383Z,6.90
2017-12-14T00:12:32.631Z,7.75
2017-12-14T00:14:59.558Z,6.20
2017-12-14T00:17:27.264Z,8.20
2017-12-14T00:19:54.107Z,6.82
2017-12-14T00:22:25.845Z,7.03
2017-12-14T00:24:52.965Z,5.95
2017-12-14T00:27:19.708Z,6.32
2017-12-14T00:29:45.918Z,6.72
2017-12-14T00:32:12.087Z,6.30
2017-12-14T00:34:39.143Z,6.68
2017-12-14T00:37:05.330Z,6.53
2017-12-14T00:39:31.530Z,7.05
2017-12-14T00:41:58.656Z,7.57
2017-12-14T00:44:26.835Z,7.03
2017-12-14T00:46:53.551Z,6.37
2017-12-14T00:49:20.552Z,7.10
2017-12-14T00:51:47.802Z,6.55
2017-12-14T00:54:13.994Z,7.15
2017-12-14T00:56:40.370Z,6.57
2017-12-14T00:59:06.825Z,6.75
2017-12-14T01:01:34.096Z,6.60
2017-12-14T01:04:02.012Z,6.05
2017-12-14T01:06:28.925Z,6.68
2017-12-14T01:08:55.801Z,6.95
2017-12-14T01:11:22.297Z,6.93
2017-12-14T01:13:48.711Z,8.38
2017-12-14T01:16:16.001Z,7.50
2017-12-14T01:18:44.260Z,8.18
2017-12-14T01:21:18.730Z,6.60
2017-12-14T01:23:45.087Z,6.30
2017-12-14T01:26:13.387Z,6.70
2017-12-14T01:28:40.854Z,5.70
2017-12-14T01:31:07.089Z,5.68
2017-12-14T01:33:34.553Z,6.30
2017-12-14T01:36:01.984Z,6.20
2017-12-14T01:38:29.281Z,5.28
2017-12-14T01:40:56.294Z,5.07
2017-12-14T01:43:24.258Z,5.25
2017-12-14T01:45:51.616Z,4.37
2017-12-14T01:48:19.062Z,5.03
2017-12-14T01:50:46.022Z,4.65
2017-12-14T01:53:13.623Z,4.10
2017-12-14T01:55:39.803Z,4.45
2017-12-14T01:58:06.350Z,4.85
2017-12-14T02:00:33.949Z,4.90
2017-12-14T02:03:00.151Z,4.10
2017-12-14T02:05:26.440Z,4.53
2017-12-14T02:07:53.722Z,4.18
2017-12-14T02:10:21.222Z,3.42
2017-12-14T02:12:48.235Z,4.40
2017-12-14T02:15:15.169Z,3.90
2017-12-14T02:17:42.466Z,4.32
2017-12-14T02:20:09.466Z,5.28
2017-12-14T02:22:36.442Z,3.87
2017-12-14T02:25:02.786Z,4.40
2017-12-14T02:27:29.767Z,4.87
2017-12-14T02:29:55.980Z,4.40
2017-12-14T02:32:22.429Z,4.90
2017-12-14T02:34:49.416Z,5.20
2017-12-14T02:37:16.177Z,4.72
2017-12-14T02:39:42.370Z,5.43
2017-12-14T02:42:08.579Z,5.20
2017-12-14T02:44:36.101Z,5.03
2017-12-14T02:47:03.640Z,5.68
2017-12-14T02:49:31.045Z,4.62
2017-12-14T02:51:58.200Z,4.60
2017-12-14T02:54:25.146Z,4.50
2017-12-14T02:56:52.647Z,4.30
2017-12-14T02:59:19.072Z,4.40
2017-12-14T03:01:46.290Z,4.87
2017-12-14T03:04:13.251Z,3.87
2017-12-14T03:06:40.082Z,4.25
2017-12-14T03:09:07.142Z,4.12
2017-12-14T03:11:33.368Z,3.95
2017-12-14T03:13:59.562Z,4.75
2017-12-14T03:16:26.774Z,4.25
2017-12-14T03:18:53.710Z,3.90
2017-12-14T03:21:19.922Z,4.45
2017-12-14T03:23:46.625Z,5.20
2017-12-14T03:26:13.340Z,4.22
2017-12-14T03:28:40.083Z,5.15
2017-12-14T03:31:07.275Z,5.62
2017-12-14T03:33:35.142Z,4.82
2017-12-14T03:36:02.074Z,6.75
2017-12-14T03:38:28.776Z,5.60
2017-12-14T03:40:56.768Z,7.00
2017-12-14T03:43:23.081Z,6.10
2017-12-14T03:45:49.290Z,5.85
2017-12-14T03:48:16.169Z,6.80
2017-12-14T03:50:43.605Z,6.40
2017-12-14T03:53:11.280Z,5.20
2017-12-14T03:55:38.370Z,4.80
2017-12-14T03:58:04.554Z,6.87
2017-12-14T04:00:31.362Z,5.43
2017-12-14T04:02:57.582Z,5.00
2017-12-14T04:05:23.797Z,5.22
2017-12-14T04:07:50.654Z,5.78
2017-12-14T04:10:16.863Z,3.95
2017-12-14T04:12:43.755Z,5.50
2017-12-14T04:15:11.270Z,4.68
2017-12-14T04:17:37.494Z,4.32
2017-12-14T04:20:04.365Z,6.60
2017-12-14T04:22:31.131Z,4.82
2017-12-14T04:24:57.874Z,4.95
2017-12-14T04:27:24.617Z,3.80
2017-12-14T04:29:50.878Z,4.95
2017-12-14T04:32:17.831Z,6.22
2017-12-14T04:34:44.082Z,4.07
2017-12-14T04:37:10.476Z,4.72
2017-12-14T04:39:37.543Z,4.53
2017-12-14T04:42:03.730Z,3.85
2017-12-14T04:44:30.230Z,5.45
2017-12-14T04:46:57.851Z,5.93
2017-12-14T04:49:25.416Z,6.45
2017-12-14T04:51:53.097Z,6.12
2017-12-14T04:54:21.200Z,4.65
2017-12-14T04:56:48.223Z,5.57
2017-12-14T04:59:14.481Z,6.32
2017-12-14T05:01:40.727Z,8.23
2017-12-14T05:04:07.469Z,5.68
2017-12-14T05:06:34.430Z,5.50
2017-12-14T05:09:02.928Z,7.20
2017-12-14T05:11:29.745Z,6.70
2017-12-14T05:13:57.488Z,7.47
2017-12-14T05:16:23.712Z,6.40
2017-12-14T05:18:49.957Z,7.80
2017-12-14T05:21:16.204Z,7.93
2017-12-14T05:23:43.758Z,7.57
2017-12-14T05:26:10.705Z,8.70
2017-12-14T05:28:38.491Z,11.25
2017-12-14T05:31:04.707Z,9.60
2017-12-14T05:33:31.578Z,8.88
2017-12-14T05:35:57.958Z,6.80
2017-12-14T05:38:24.932Z,6.40
2017-12-14T05:40:51.129Z,7.87
2017-12-14T05:43:17.358Z,7.70
2017-12-14T05:45:45.484Z,6.60
2017-12-14T05:48:11.797Z,6.68
2017-12-14T05:50:38.518Z,6.32
2017-12-14T05:53:04.767Z,8.20
2017-12-14T05:55:31.050Z,7.50
2017-12-14T05:57:57.844Z,7.15
2017-12-14T06:00:24.064Z,8.35
2017-12-14T06:02:50.465Z,8.23
2017-12-14T06:05:17.753Z,7.85
2017-12-14T06:07:45.474Z,8.65
2017-12-14T06:10:12.414Z,8.85
2017-12-14T06:12:38.634Z,6.32
2017-12-14T06:15:05.362Z,7.78
2017-12-14T06:17:32.157Z,8.95
2017-12-14T06:19:59.443Z,11.40
2017-12-14T06:22:26.600Z,12.18
2017-12-14T06:24:53.614Z,14.87
2017-12-14T06:27:19.813Z,9.35
2017-12-14T06:29:46.883Z,11.00
2017-12-14T06:32:14.313Z,13.25
2017-12-14T06:34:42.397Z,13.05
2017-12-14T06:37:08.710Z,11.90
2017-12-14T06:39:34.906Z,9.20
2017-12-14T06:42:01.114Z,11.35
2017-12-14T06:44:27.418Z,10.10
2017-12-14T06:46:54.707Z,10.55
2017-12-14T06:49:21.450Z,11.80
2017-12-14T06:51:47.659Z,12.68
2017-12-14T06:54:14.079Z,11.43
2017-12-14T06:56:41.124Z,10.73
2017-12-14T06:59:07.351Z,12.20
2017-12-14T07:01:34.209Z,10.38
2017-12-14T07:04:00.994Z,10.77
2017-12-14T07:06:28.198Z,10.50
2017-12-14T07:08:54.542Z,9.18
2017-12-14T07:11:21.598Z,8.77
2017-12-14T07:13:47.816Z,6.57
2017-12-14T07:16:14.152Z,5.62
2017-12-14T07:18:40.370Z,6.57
2017-12-14T07:21:07.596Z,5.93
2017-12-14T07:23:34.579Z,5.75
2017-12-14T07:26:01.586Z,6.70
2017-12-14T07:28:27.797Z,5.25
2017-12-14T07:30:54.761Z,5.28
2017-12-14T07:33:20.987Z,5.22
2017-12-14T07:35:47.390Z,4.15
2017-12-14T07:38:14.435Z,4.40
2017-12-14T07:40:40.676Z,4.18
2017-12-14T07:43:08.003Z,2.55
2017-12-14T07:45:57.298Z,1.65
2017-12-14T07:48:24.236Z,1.33
2017-12-14T07:50:50.721Z,0.93
2017-12-14T07:53:17.080Z,0.85
2017-12-14T07:55:43.326Z,0.70
2017-12-14T07:58:10.361Z,0.70
2017-12-14T08:00:37.381Z,0.80
2017-12-14T08:03:04.458Z,0.70
2017-12-14T08:05:31.437Z,0.70
2017-12-14T08:07:57.659Z,1.02
2017-12-14T08:10:25.256Z,0.90
2017-12-14T08:12:53.172Z,0.77
2017-12-14T08:15:20.233Z,1.60
2017-12-14T08:17:47.060Z,0.70
2017-12-14T08:20:14.048Z,0.75
2017-12-14T08:22:40.581Z,1.00
2017-12-14T08:25:07.979Z,2.28
2017-12-14T08:27:35.061Z,2.00
2017-12-14T08:30:01.430Z,2.50
2017-12-14T08:32:27.877Z,1.60
2017-12-14T08:34:54.954Z,1.10
2017-12-14T08:37:21.201Z,1.30
2017-12-14T08:39:47.591Z,1.27
2017-12-14T08:42:13.811Z,0.90
2017-12-14T08:44:40.710Z,0.90
2017-12-14T08:47:08.333Z,0.90
2017-12-14T08:49:35.439Z,1.25
2017-12-14T08:52:02.045Z,1.48
2017-12-14T08:54:29.384Z,1.33
2017-12-14T08:56:56.453Z,3.80
2017-12-14T08:59:22.736Z,2.10
2017-12-14T09:01:48.965Z,1.00
2017-12-14T09:04:15.550Z,1.50
2017-12-14T09:09:33.583Z,1.12
2017-12-14T09:12:01.094Z,1.10
2017-12-14T09:14:29.051Z,1.40
2017-12-14T09:16:56.127Z,1.27
2017-12-14T09:19:23.238Z,1.15
2017-12-14T09:21:49.507Z,1.40
2017-12-14T09:24:16.298Z,1.67
2017-12-14T09:26:42.606Z,1.80
2017-12-14T09:29:09.681Z,2.10
2017-12-14T09:31:36.446Z,2.40
2017-12-14T09:34:02.905Z,1.60
2017-12-14T09:36:30.406Z,1.95
2017-12-14T09:38:57.234Z,2.12
2017-12-14T09:41:23.496Z,3.15
2017-12-14T09:43:49.707Z,2.10
2017-12-14T09:46:16.095Z,1.75
2017-12-14T09:48:43.243Z,1.20
2017-12-14T09:51:10.755Z,1.40
2017-12-14T09:53:37.546Z,1.25
2017-12-14T09:56:04.376Z,1.08
2017-12-14T09:58:31.805Z,1.52
2017-12-14T10:00:58.052Z,1.50
2017-12-14T10:03:24.609Z,0.90
2017-12-14T10:05:51.843Z,1.05
2017-12-14T10:08:18.224Z,1.20
2017-12-14T10:10:44.493Z,1.40
2017-12-14T10:13:11.153Z,1.15
2017-12-14T10:15:38.698Z,1.15
2017-12-14T10:18:04.934Z,1.12
2017-12-14T10:20:31.398Z,1.48
2017-12-14T10:22:58.389Z,1.58
2017-12-14T10:25:24.667Z,1.60
2017-12-14T10:27:51.648Z,1.15
2017-12-14T10:30:17.883Z,1.20
2017-12-14T10:32:44.709Z,1.10
2017-12-14T10:35:11.243Z,1.20
2017-12-14T10:37:38.287Z,1.35
2017-12-14T10:40:04.719Z,1.85
2017-12-14T10:42:32.168Z,1.17
2017-12-14T10:45:00.274Z,1.10
2017-12-14T10:47:26.595Z,1.00
2017-12-14T10:49:56.611Z,1.20
2017-12-14T10:52:23.576Z,1.25
2017-12-14T10:54:49.824Z,1.40
2017-12-14T10:57:16.077Z,1.30
2017-12-14T10:59:43.070Z,1.35
2017-12-14T11:02:09.446Z,1.10
2017-12-14T11:04:36.768Z,1.30
2017-12-14T11:07:03.771Z,1.30
2017-12-14T11:09:30.430Z,1.30
2017-12-14T11:11:58.113Z,1.50
2017-12-14T11:14:24.346Z,1.50
2017-12-14T11:16:51.195Z,2.30
2017-12-14T11:19:17.723Z,1.37
2017-12-14T11:21:44.506Z,1.30
2017-12-14T11:24:10.723Z,1.23
2017-12-14T11:26:37.693Z,1.85
2017-12-14T11:29:04.007Z,1.40
2017-12-14T11:31:30.782Z,2.35
2017-12-14T11:33:57.965Z,1.45
2017-12-14T11:36:24.676Z,1.42
2017-12-14T11:38:51.133Z,1.60
2017-12-14T11:41:17.367Z,1.25
2017-12-14T11:43:43.623Z,2.10
2017-12-14T11:46:11.552Z,1.60
2017-12-14T11:48:38.295Z,1.40
2017-12-14T11:51:04.596Z,1.70
2017-12-14T11:53:31.273Z,1.50
2017-12-14T11:55:57.657Z,1.27
2017-12-14T11:58:24.086Z,1.90
2017-12-14T12:00:51.334Z,1.20
2017-12-14T12:03:18.376Z,1.50
2017-12-14T12:05:45.592Z,1.67
2017-12-14T12:08:12.627Z,1.80
2017-12-14T12:10:38.890Z,1.30
2017-12-14T12:13:05.434Z,1.50
2017-12-14T12:15:32.475Z,1.80
2017-12-14T12:17:58.718Z,1.55
2017-12-14T12:20:25.222Z,2.40
2017-12-14T12:22:52.344Z,1.17
2017-12-14T12:25:18.955Z,2.00
2017-12-14T12:27:45.999Z,1.23
2017-12-14T12:30:12.242Z,1.60
2017-12-14T12:32:38.814Z,1.40
2017-12-14T12:35:06.133Z,2.25
2017-12-14T12:37:33.291Z,1.20
2017-12-14T12:40:00.692Z,1.40
2017-12-14T12:42:26.947Z,1.50
2017-12-14T12:44:53.332Z,1.40
2017-12-14T12:47:20.452Z,1.30
2017-12-14T12:52:19.822Z,1.33
2017-12-14T12:54:46.046Z,1.60
2017-12-14T12:57:13.153Z,1.62
2017-12-14T12:59:40.624Z,1.50
2017-12-14T13:02:08.280Z,1.33
2017-12-14T13:04:34.662Z,1.02
2017-12-14T13:07:02.312Z,1.35
2017-12-14T13:09:29.973Z,1.90
2017-12-14T13:11:56.242Z,1.55
2017-12-14T13:14:22.582Z,1.42
2017-12-14T13:16:49.168Z,1.37
2017-12-14T13:19:16.255Z,1.25
2017-12-14T13:21:42.488Z,1.75
2017-12-14T13:24:08.831Z,1.40
2017-12-14T13:26:35.165Z,1.90
2017-12-14T13:29:01.433Z,1.50
2017-12-14T13:31:27.925Z,1.60
2017-12-14T13:33:55.490Z,1.45
2017-12-14T13:36:22.493Z,1.73
2017-12-14T13:38:49.716Z,1.33
2017-12-14T13:41:15.952Z,1.33
2017-12-14T13:43:42.316Z,1.45
2017-12-14T13:46:08.834Z,1.42
2017-12-14T13:48:36.334Z,1.70
2017-12-14T13:51:03.091Z,1.33
2017-12-14T13:53:30.985Z,1.35
2017-12-14T13:55:58.498Z,1.60
2017-12-14T13:58:25.753Z,1.65
2017-12-14T14:00:52.073Z,2.00
2017-12-14T14:03:18.292Z,1.25
2017-12-14T14:05:44.870Z,1.60
2017-12-14T14:08:12.513Z,1.05
2017-12-14T14:10:39.586Z,1.67
2017-12-14T14:13:06.998Z,1.30
2017-12-14T14:15:33.243Z,1.10
2017-12-14T14:18:00.307Z,1.25
2017-12-14T14:20:27.630Z,1.70
2017-12-14T14:22:53.970Z,1.20
2017-12-14T14:25:20.218Z,1.00
2017-12-14T14:27:47.189Z,0.90
2017-12-14T14:30:13.475Z,1.00
2017-12-14T14:32:40.308Z,1.20
2017-12-14T14:35:07.250Z,1.10
2017-12-14T14:37:33.483Z,1.15
2017-12-14T14:40:00.311Z,1.40
2017-12-14T14:42:26.527Z,1.42
2017-12-14T14:44:53.021Z,1.40
2017-12-14T14:47:20.416Z,1.67
2017-12-14T14:49:46.612Z,2.12
2017-12-14T14:52:12.846Z,1.90
2017-12-14T14:54:40.204Z,1.77
2017-12-14T14:57:07.344Z,1.95
2017-12-14T14:59:34.350Z,1.60
2017-12-14T15:02:01.894Z,2.12
2017-12-14T15:04:28.958Z,2.95
2017-12-14T15:06:55.160Z,3.35
2017-12-14T15:09:21.361Z,3.20
2017-12-14T15:11:47.862Z,3.75
2017-12-14T15:14:14.919Z,4.00
2017-12-14T15:16:41.598Z,1.75
2017-12-14T15:19:08.607Z,2.25
2017-12-14T15:21:35.952Z,2.42
2017-12-14T15:24:03.262Z,2.40
2017-12-14T15:26:30.218Z,3.37
2017-12-14T15:28:56.425Z,2.00
2017-12-14T15:31:23.690Z,2.85
2017-12-14T15:33:50.969Z,2.67
2017-12-14T15:36:18.551Z,2.50
2017-12-14T15:38:45.274Z,1.80
2017-12-14T15:41:12.973Z,2.00
2017-12-14T15:43:40.057Z,2.10
2017-12-14T15:46:06.522Z,2.10
2017-12-14T15:48:33.557Z,2.53
2017-12-14T15:51:01.154Z,1.60
2017-12-14T15:53:27.352Z,2.12
2017-12-14T15:55:54.481Z,2.20
2017-12-14T15:58:22.097Z,1.87
2017-12-14T16:00:49.700Z,1.75
2017-12-14T16:03:15.958Z,2.70
2017-12-14T16:05:43.764Z,2.08
2017-12-14T16:08:10.770Z,4.00
2017-12-14T16:10:38.059Z,2.45
2017-12-14T16:13:05.196Z,2.40
2017-12-14T16:15:31.478Z,2.92
2017-12-14T16:17:59.266Z,2.00
2017-12-14T16:20:25.482Z,2.58
2017-12-14T16:22:52.654Z,2.83
2017-12-14T16:25:19.787Z,2.50
2017-12-14T16:27:47.581Z,2.28
2017-12-14T16:30:14.755Z,3.47
2017-12-14T16:32:41.406Z,3.17
2017-12-14T16:35:07.646Z,3.10
2017-12-14T16:37:33.936Z,3.62
2017-12-14T16:40:00.370Z,3.20
2017-12-14T16:42:27.027Z,5.68
2017-12-14T16:44:53.415Z,3.70
2017-12-14T16:47:20.910Z,3.35
2017-12-14T16:49:47.173Z,2.97
2017-12-14T16:52:14.737Z,3.55
2017-12-14T16:54:41.828Z,3.90
2017-12-14T16:57:08.536Z,4.05
2017-12-14T16:59:35.575Z,3.70
2017-12-14T17:02:02.956Z,3.60
2017-12-14T17:04:29.990Z,8.75
2017-12-14T17:06:56.714Z,3.05
2017-12-14T17:09:24.089Z,5.62
2017-12-14T17:11:50.588Z,6.40
2017-12-14T17:14:17.815Z,13.70
2017-12-14T17:16:44.370Z,11.80
2017-12-14T17:19:11.266Z,11.50
2017-12-14T17:21:37.708Z,12.37
2017-12-14T17:24:03.912Z,14.23
2017-12-14T17:26:30.132Z,15.93
2017-12-14T17:28:56.984Z,10.88
2017-12-14T17:31:23.909Z,12.68
2017-12-14T17:33:51.868Z,12.10
2017-12-14T17:36:18.801Z,8.05
2017-12-14T17:38:45.423Z,8.98
2017-12-14T17:41:12.151Z,7.55
2017-12-14T17:43:38.758Z,9.45
2017-12-14T17:46:05.819Z,8.35
2017-12-14T17:48:32.081Z,7.22
2017-12-14T17:50:58.602Z,6.75
2017-12-14T17:53:24.799Z,9.13
2017-12-14T17:55:51.079Z,6.03
2017-12-14T17:58:17.773Z,5.57
2017-12-14T18:00:44.779Z,5.75
2017-12-14T18:03:12.068Z,6.60
2017-12-14T18:05:39.123Z,7.68
2017-12-14T18:08:05.402Z,7.00
2017-12-14T18:10:32.846Z,6.55
2017-12-14T18:12:59.614Z,8.35
2017-12-14T18:15:26.587Z,8.30
2017-12-14T18:17:53.013Z,6.95
2017-12-14T18:20:20.023Z,7.75
2017-12-14T18:22:46.743Z,9.05
2017-12-14T18:25:12.970Z,8.20
2017-12-14T18:27:39.838Z,6.30
2017-12-14T18:30:06.097Z,6.10
2017-12-14T18:32:32.374Z,6.90
2017-12-14T18:34:58.847Z,4.65
2017-12-14T18:37:25.346Z,5.65
2017-12-14T18:39:51.828Z,4.35
2017-12-14T18:42:18.067Z,4.30
2017-12-14T18:44:44.849Z,4.90
2017-12-14T18:47:11.123Z,4.60
2017-12-14T18:49:38.245Z,5.18
2017-12-14T18:52:05.195Z,4.72
2017-12-14T18:54:32.540Z,4.20
2017-12-14T18:56:59.516Z,4.85
2017-12-14T18:59:26.266Z,6.12
2017-12-14T19:01:53.323Z,7.40
2017-12-14T19:04:19.605Z,7.25
2017-12-14T19:06:46.767Z,6.75
2017-12-14T19:09:13.757Z,7.90
2017-12-14T19:11:40.315Z,8.55
2017-12-14T19:14:07.464Z,8.18
2017-12-14T19:16:34.266Z,7.18
2017-12-14T19:19:01.023Z,9.13
2017-12-14T19:21:28.419Z,5.12
2017-12-14T19:23:55.483Z,4.60
2017-12-14T19:26:22.906Z,3.12
2017-12-14T19:28:49.518Z,2.30
2017-12-14T19:31:16.842Z,2.53
2017-12-14T19:33:44.707Z,2.22
2017-12-14T19:36:11.031Z,2.75
2017-12-14T19:38:38.384Z,2.62
2017-12-14T19:41:05.377Z,2.15
2017-12-14T19:43:32.371Z,2.62
2017-12-14T19:45:59.906Z,3.53
2017-12-14T19:48:27.013Z,2.90
2017-12-14T19:50:54.389Z,3.17
2017-12-14T19:53:20.949Z,2.20
2017-12-14T19:55:48.276Z,2.90
2017-12-14T19:58:15.310Z,3.03
2017-12-14T20:00:42.225Z,6.80
2017-12-14T20:03:09.285Z,2.95
2017-12-14T20:05:35.714Z,15.15
2017-12-14T20:08:02.072Z,5.35
2017-12-14T20:10:29.167Z,4.37
2017-12-14T20:12:55.519Z,4.03
2017-12-14T20:15:21.958Z,4.03
2017-12-14T20:17:48.677Z,3.30
2017-12-14T20:20:15.681Z,3.12
2017-12-14T20:22:42.424Z,4.32
2017-12-14T20:25:10.407Z,4.68
2017-12-14T20:27:37.992Z,3.40
2017-12-14T20:30:04.390Z,4.12
2017-12-14T20:32:31.303Z,3.85
2017-12-14T20:34:57.855Z,3.85
2017-12-14T20:37:24.979Z,3.28
2017-12-14T20:39:51.339Z,2.70
2017-12-14T20:42:18.143Z,2.10
2017-12-14T20:44:45.594Z,3.58
2017-12-14T20:47:12.312Z,8.38
2017-12-14T20:49:40.203Z,5.78
2017-12-14T20:52:07.283Z,6.65
2017-12-14T20:54:34.976Z,3.17
2017-12-14T20:57:02.203Z,2.12
2017-12-14T20:59:29.277Z,2.03
2017-12-14T21:01:56.978Z,2.08
2017-12-14T21:04:23.517Z,2.80
2017-12-14T21:06:50.612Z,1.98
2017-12-14T21:09:17.412Z,2.40
2017-12-14T21:11:43.716Z,2.30
2017-12-14T21:14:10.000Z,2.50
2017-12-14T21:16:36.741Z,3.35
2017-12-14T21:19:03.503Z,2.80
2017-12-14T21:21:31.031Z,2.65
2017-12-14T21:23:57.588Z,2.15
2017-12-14T21:26:25.714Z,2.03
2017-12-14T21:28:51.939Z,2.92
2017-12-14T21:31:18.336Z,3.78
2017-12-14T21:33:45.316Z,2.50
2017-12-14T21:36:11.694Z,3.00
2017-12-14T21:38:38.691Z,2.80
2017-12-14T21:41:06.212Z,4.43
2017-12-14T21:43:33.176Z,2.45
2017-12-14T21:46:01.357Z,2.75
2017-12-14T21:48:27.723Z,2.30
2017-12-14T21:50:54.681Z,2.35
2017-12-14T21:53:22.269Z,3.65
2017-12-14T21:55:49.503Z,2.17
2017-12-14T21:58:19.089Z,2.40
2017-12-14T22:00:46.367Z,2.83
2017-12-14T22:03:13.435Z,2.70
2017-12-14T22:05:40.393Z,2.25
2017-12-14T22:08:07.070Z,1.70
2017-12-14T22:10:33.856Z,2.03
2017-12-14T22:13:00.704Z,2.53
2017-12-14T22:15:27.874Z,2.00
2017-12-14T22:17:55.138Z,2.33
2017-12-14T22:20:21.334Z,1.87
2017-12-14T22:22:47.602Z,2.42
2017-12-14T22:25:14.591Z,2.28
2017-12-14T22:27:41.692Z,2.40
2017-12-14T22:30:07.944Z,2.70
2017-12-14T22:32:35.135Z,2.72
2017-12-14T22:35:02.251Z,2.55
2017-12-14T22:37:29.924Z,2.15
2017-12-14T22:39:57.057Z,2.70
2017-12-14T22:42:24.651Z,1.87
2017-12-14T22:44:52.297Z,2.10
2017-12-14T22:47:19.269Z,2.78
2017-12-14T22:49:46.084Z,2.60
2017-12-14T22:52:13.473Z,2.80
2017-12-14T22:54:40.078Z,2.30
2017-12-14T22:57:07.039Z,2.10
2017-12-14T22:59:33.402Z,2.40
2017-12-14T23:02:01.499Z,2.10
2017-12-14T23:04:29.011Z,1.98
2017-12-14T23:06:55.224Z,2.20
2017-12-14T23:09:23.084Z,2.05
2017-12-14T23:11:50.586Z,2.60
2017-12-14T23:14:17.806Z,1.90
2017-12-14T23:16:45.135Z,2.40
2017-12-14T23:19:12.425Z,2.33
2017-12-14T23:21:40.027Z,2.30
2017-12-14T23:24:07.113Z,2.35
2017-12-14T23:26:34.193Z,2.40
2017-12-14T23:29:01.062Z,2.60
2017-12-14T23:31:27.609Z,1.90
2017-12-14T23:33:54.592Z,2.35
2017-12-14T23:36:21.519Z,1.62
2017-12-14T23:38:48.490Z,1.90
2017-12-14T23:41:14.700Z,2.03
2017-12-14T23:43:41.647Z,2.50
2017-12-14T23:46:09.385Z,2.87
2017-12-14T23:48:35.600Z,2.60
2017-12-14T23:51:01.804Z,2.22
2017-12-14T23:53:28.833Z,2.10
2017-12-14T23:55:55.087Z,1.80
2017-12-14T23:58:21.302Z,2.70
